sensor_id;sensor_type;location;lat;lon;timestamp;temperature;humidity
7399;DHT22;3740;50.700;7.184;2022-12-13T00:02:03;-0.80;99.90
7399;DHT22;3740;50.700;7.184;2022-12-13T00:04:28;-0.80;99.90
7399;DHT22;3740;50.700;7.184;2022-12-13T00:06:54;-0.80;99.90
7399;DHT22;3740;50.700;7.184;2022-12-13T00:09:19;-0.80;99.90
7399;DHT22;3740;50.700;7.184;2022-12-13T00:11:46;-0.80;99.90
7399;DHT22;3740;50.700;7.184;2022-12-13T00:14:13;-0.90;99.90
7399;DHT22;3740;50.700;7.184;2022-12-13T00:16:40;-0.90;99.90
7399;DHT22;3740;50.700;7.184;2022-12-13T00:19:09;-0.90;99.90
7399;DHT22;3740;50.700;7.184;2022-12-13T00:21:35;-0.80;99.90
7399;DHT22;3740;50.700;7.184;2022-12-13T00:24:01;-0.80;99.90
7399;DHT22;3740;50.700;7.184;2022-12-13T00:26:29;-0.80;99.90
7399;DHT22;3740;50.700;7.184;2022-12-13T00:28:55;-0.80;99.90
7399;DHT22;3740;50.700;7.184;2022-12-13T00:31:23;-0.90;99.90
7399;DHT22;3740;50.700;7.184;2022-12-13T00:33:48;-0.90;99.90
7399;DHT22;3740;50.700;7.184;2022-12-13T00:36:14;-0.80;99.90
7399;DHT22;3740;50.700;7.184;2022-12-13T00:38:40;-0.80;99.90
7399;DHT22;3740;50.700;7.184;2022-12-13T00:41:17;-0.70;99.90
7399;DHT22;3740;50.700;7.184;2022-12-13T00:43:43;-0.60;99.90
7399;DHT22;3740;50.700;7.184;2022-12-13T00:46:14;-0.60;99.90
7399;DHT22;3740;50.700;7.184;2022-12-13T00:48:41;-0.60;99.90
7399;DHT22;3740;50.700;7.184;2022-12-13T00:51:07;-0.50;99.90
7399;DHT22;3740;50.700;7.184;2022-12-13T00:53:33;-0.50;99.90
7399;DHT22;3740;50.700;7.184;2022-12-13T00:55:59;-0.60;99.90
7399;DHT22;3740;50.700;7.184;2022-12-13T00:58:24;-0.70;99.90
7399;DHT22;3740;50.700;7.184;2022-12-13T01:00:50;-0.70;99.90
7399;DHT22;3740;50.700;7.184;2022-12-13T01:03:16;-0.70;99.90
7399;DHT22;3740;50.700;7.184;2022-12-13T01:05:47;-0.60;99.90
7399;DHT22;3740;50.700;7.184;2022-12-13T01:08:14;-0.50;99.90
7399;DHT22;3740;50.700;7.184;2022-12-13T01:10:44;-0.50;99.90
7399;DHT22;3740;50.700;7.184;2022-12-13T01:13:10;-0.40;99.90
7399;DHT22;3740;50.700;7.184;2022-12-13T01:15:44;-0.50;99.90
7399;DHT22;3740;50.700;7.184;2022-12-13T01:18:11;-0.40;99.90
7399;DHT22;3740;50.700;7.184;2022-12-13T01:20:37;-0.40;99.90
7399;DHT22;3740;50.700;7.184;2022-12-13T01:23:03;-0.60;99.90
7399;DHT22;3740;50.700;7.184;2022-12-13T01:25:29;-0.60;99.90
7399;DHT22;3740;50.700;7.184;2022-12-13T01:27:58;-0.60;99.90
7399;DHT22;3740;50.700;7.184;2022-12-13T01:30:24;-0.40;99.90
7399;DHT22;3740;50.700;7.184;2022-12-13T01:32:49;-0.20;99.90
7399;DHT22;3740;50.700;7.184;2022-12-13T01:35:15;-0.30;99.90
7399;DHT22;3740;50.700;7.184;2022-12-13T01:37:40;-0.40;99.90
7399;DHT22;3740;50.700;7.184;2022-12-13T01:40:08;-0.60;99.90
7399;DHT22;3740;50.700;7.184;2022-12-13T01:42:37;-0.70;99.90
7399;DHT22;3740;50.700;7.184;2022-12-13T01:47:39;-0.90;99.90
7399;DHT22;3740;50.700;7.184;2022-12-13T01:50:11;-1.00;99.90
7399;DHT22;3740;50.700;7.184;2022-12-13T01:52:38;-1.10;99.90
7399;DHT22;3740;50.700;7.184;2022-12-13T01:55:06;-1.10;99.90
7399;DHT22;3740;50.700;7.184;2022-12-13T01:57:33;-1.10;99.90
7399;DHT22;3740;50.700;7.184;2022-12-13T01:59:59;-1.10;99.90
7399;DHT22;3740;50.700;7.184;2022-12-13T02:02:25;-1.10;99.90
7399;DHT22;3740;50.700;7.184;2022-12-13T02:05:15;-1.10;99.90
7399;DHT22;3740;50.700;7.184;2022-12-13T02:07:44;-1.10;99.90
7399;DHT22;3740;50.700;7.184;2022-12-13T02:10:10;-1.10;99.90
7399;DHT22;3740;50.700;7.184;2022-12-13T02:12:39;-1.20;99.90
7399;DHT22;3740;50.700;7.184;2022-12-13T02:15:11;-1.20;99.90
7399;DHT22;3740;50.700;7.184;2022-12-13T02:18:00;-1.10;99.90
7399;DHT22;3740;50.700;7.184;2022-12-13T02:31:31;-1.10;99.90
7399;DHT22;3740;50.700;7.184;2022-12-13T02:34:09;-1.20;99.90
7399;DHT22;3740;50.700;7.184;2022-12-13T02:36:45;-1.20;99.90
7399;DHT22;3740;50.700;7.184;2022-12-13T02:39:32;-1.20;99.90
7399;DHT22;3740;50.700;7.184;2022-12-13T02:42:19;-1.20;99.90
7399;DHT22;3740;50.700;7.184;2022-12-13T02:45:02;-1.10;99.90
7399;DHT22;3740;50.700;7.184;2022-12-13T02:47:30;-1.10;99.90
7399;DHT22;3740;50.700;7.184;2022-12-13T02:50:02;-1.20;99.90
7399;DHT22;3740;50.700;7.184;2022-12-13T02:52:30;-1.20;99.90
7399;DHT22;3740;50.700;7.184;2022-12-13T02:54:57;-1.20;99.90
7399;DHT22;3740;50.700;7.184;2022-12-13T03:00:07;-1.20;99.90
7399;DHT22;3740;50.700;7.184;2022-12-13T03:02:59;-1.30;99.90
7399;DHT22;3740;50.700;7.184;2022-12-13T03:08:22;-1.30;99.90
7399;DHT22;3740;50.700;7.184;2022-12-13T03:11:03;-1.20;99.90
7399;DHT22;3740;50.700;7.184;2022-12-13T03:16:28;-1.10;99.90
7399;DHT22;3740;50.700;7.184;2022-12-13T03:18:59;-1.00;99.90
7399;DHT22;3740;50.700;7.184;2022-12-13T03:21:25;-1.00;99.90
7399;DHT22;3740;50.700;7.184;2022-12-13T03:23:51;-1.00;99.90
7399;DHT22;3740;50.700;7.184;2022-12-13T03:26:20;-1.00;99.90
7399;DHT22;3740;50.700;7.184;2022-12-13T03:28:46;-1.10;99.90
7399;DHT22;3740;50.700;7.184;2022-12-13T03:31:11;-1.00;99.90
7399;DHT22;3740;50.700;7.184;2022-12-13T03:33:37;-1.00;99.90
7399;DHT22;3740;50.700;7.184;2022-12-13T03:36:04;-1.00;99.90
7399;DHT22;3740;50.700;7.184;2022-12-13T03:38:30;-1.20;99.90
7399;DHT22;3740;50.700;7.184;2022-12-13T03:41:06;-1.20;99.90
7399;DHT22;3740;50.700;7.184;2022-12-13T03:43:33;-1.00;99.90
7399;DHT22;3740;50.700;7.184;2022-12-13T03:45:58;-0.80;99.90
7399;DHT22;3740;50.700;7.184;2022-12-13T03:48:25;-0.70;99.90
7399;DHT22;3740;50.700;7.184;2022-12-13T03:50:52;-0.70;99.90
7399;DHT22;3740;50.700;7.184;2022-12-13T03:53:19;-0.80;99.90
7399;DHT22;3740;50.700;7.184;2022-12-13T03:55:45;-1.10;99.90
7399;DHT22;3740;50.700;7.184;2022-12-13T03:58:11;-1.20;99.90
7399;DHT22;3740;50.700;7.184;2022-12-13T04:00:37;-1.60;99.90
7399;DHT22;3740;50.700;7.184;2022-12-13T04:03:03;-1.80;99.90
7399;DHT22;3740;50.700;7.184;2022-12-13T04:05:29;-1.90;99.90
7399;DHT22;3740;50.700;7.184;2022-12-13T04:07:55;-1.90;99.90
7399;DHT22;3740;50.700;7.184;2022-12-13T04:10:22;-1.90;99.90
7399;DHT22;3740;50.700;7.184;2022-12-13T04:12:47;-1.80;99.90
7399;DHT22;3740;50.700;7.184;2022-12-13T04:15:31;-1.70;99.90
7399;DHT22;3740;50.700;7.184;2022-12-13T04:17:57;-1.70;99.90
7399;DHT22;3740;50.700;7.184;2022-12-13T04:20:22;-1.60;99.90
7399;DHT22;3740;50.700;7.184;2022-12-13T04:22:48;-1.60;99.90
7399;DHT22;3740;50.700;7.184;2022-12-13T04:25:14;-1.50;99.90
7399;DHT22;3740;50.700;7.184;2022-12-13T04:27:39;-1.60;99.90
7399;DHT22;3740;50.700;7.184;2022-12-13T04:30:05;-1.60;99.90
7399;DHT22;3740;50.700;7.184;2022-12-13T04:32:31;-1.60;99.90
7399;DHT22;3740;50.700;7.184;2022-12-13T04:34:57;-1.70;99.90
7399;DHT22;3740;50.700;7.184;2022-12-13T04:37:23;-1.70;99.90
7399;DHT22;3740;50.700;7.184;2022-12-13T04:39:48;-1.80;99.90
7399;DHT22;3740;50.700;7.184;2022-12-13T04:42:14;-1.80;99.90
7399;DHT22;3740;50.700;7.184;2022-12-13T04:44:40;-1.80;99.90
7399;DHT22;3740;50.700;7.184;2022-12-13T04:47:05;-1.80;99.90
7399;DHT22;3740;50.700;7.184;2022-12-13T04:49:31;-1.80;99.90
7399;DHT22;3740;50.700;7.184;2022-12-13T04:51:57;-1.80;99.90
7399;DHT22;3740;50.700;7.184;2022-12-13T04:54:23;-2.00;99.90
7399;DHT22;3740;50.700;7.184;2022-12-13T04:56:49;-2.10;99.90
7399;DHT22;3740;50.700;7.184;2022-12-13T04:59:15;-1.90;99.90
7399;DHT22;3740;50.700;7.184;2022-12-13T05:01:41;-1.80;99.90
7399;DHT22;3740;50.700;7.184;2022-12-13T05:04:06;-1.70;99.90
7399;DHT22;3740;50.700;7.184;2022-12-13T05:06:32;-1.70;99.90
7399;DHT22;3740;50.700;7.184;2022-12-13T05:08:57;-1.60;99.90
7399;DHT22;3740;50.700;7.184;2022-12-13T05:11:23;-1.60;99.90
7399;DHT22;3740;50.700;7.184;2022-12-13T05:13:49;-1.50;99.90
7399;DHT22;3740;50.700;7.184;2022-12-13T05:16:14;-1.50;99.90
7399;DHT22;3740;50.700;7.184;2022-12-13T05:18:41;-1.50;99.90
7399;DHT22;3740;50.700;7.184;2022-12-13T05:21:08;-1.40;99.90
7399;DHT22;3740;50.700;7.184;2022-12-13T05:23:34;-1.30;99.90
7399;DHT22;3740;50.700;7.184;2022-12-13T05:26:00;-1.40;99.90
7399;DHT22;3740;50.700;7.184;2022-12-13T05:28:27;-1.40;99.90
7399;DHT22;3740;50.700;7.184;2022-12-13T05:30:55;-1.40;99.90
7399;DHT22;3740;50.700;7.184;2022-12-13T05:33:22;-1.30;99.90
7399;DHT22;3740;50.700;7.184;2022-12-13T05:35:48;-1.10;99.90
7399;DHT22;3740;50.700;7.184;2022-12-13T05:38:13;-0.90;99.90
7399;DHT22;3740;50.700;7.184;2022-12-13T05:40:39;-0.90;99.90
7399;DHT22;3740;50.700;7.184;2022-12-13T05:43:05;-0.90;99.90
7399;DHT22;3740;50.700;7.184;2022-12-13T05:45:31;-0.90;99.90
7399;DHT22;3740;50.700;7.184;2022-12-13T05:47:57;-1.10;99.90
7399;DHT22;3740;50.700;7.184;2022-12-13T05:50:23;-1.30;99.90
7399;DHT22;3740;50.700;7.184;2022-12-13T05:52:49;-1.20;99.90
7399;DHT22;3740;50.700;7.184;2022-12-13T05:55:14;-1.10;99.90
7399;DHT22;3740;50.700;7.184;2022-12-13T05:57:40;-1.10;99.90
7399;DHT22;3740;50.700;7.184;2022-12-13T06:00:08;-1.00;99.90
7399;DHT22;3740;50.700;7.184;2022-12-13T06:02:39;-1.00;99.90
7399;DHT22;3740;50.700;7.184;2022-12-13T06:05:05;-1.10;99.90
7399;DHT22;3740;50.700;7.184;2022-12-13T06:07:31;-1.20;99.90
7399;DHT22;3740;50.700;7.184;2022-12-13T06:09:56;-1.10;99.90
7399;DHT22;3740;50.700;7.184;2022-12-13T06:12:22;-1.00;99.90
7399;DHT22;3740;50.700;7.184;2022-12-13T06:14:48;-0.80;99.90
7399;DHT22;3740;50.700;7.184;2022-12-13T06:17:13;-0.90;99.90
7399;DHT22;3740;50.700;7.184;2022-12-13T06:19:39;-0.80;99.90
7399;DHT22;3740;50.700;7.184;2022-12-13T06:22:04;-0.90;99.90
7399;DHT22;3740;50.700;7.184;2022-12-13T06:24:30;-0.80;99.90
7399;DHT22;3740;50.700;7.184;2022-12-13T06:26:55;-0.70;99.90
7399;DHT22;3740;50.700;7.184;2022-12-13T06:29:22;-0.70;99.90
7399;DHT22;3740;50.700;7.184;2022-12-13T06:32:00;-0.80;99.90
7399;DHT22;3740;50.700;7.184;2022-12-13T06:34:26;-0.60;99.90
7399;DHT22;3740;50.700;7.184;2022-12-13T06:36:52;-0.40;99.90
7399;DHT22;3740;50.700;7.184;2022-12-13T06:39:18;-0.50;99.90
7399;DHT22;3740;50.700;7.184;2022-12-13T06:41:43;-0.60;99.90
7399;DHT22;3740;50.700;7.184;2022-12-13T06:44:10;-0.90;99.90
7399;DHT22;3740;50.700;7.184;2022-12-13T06:46:36;-1.10;99.90
7399;DHT22;3740;50.700;7.184;2022-12-13T06:49:02;-1.30;99.90
7399;DHT22;3740;50.700;7.184;2022-12-13T06:51:28;-1.40;99.90
7399;DHT22;3740;50.700;7.184;2022-12-13T06:53:54;-1.40;99.90
7399;DHT22;3740;50.700;7.184;2022-12-13T06:56:21;-1.40;99.90
7399;DHT22;3740;50.700;7.184;2022-12-13T06:58:47;-1.30;99.90
7399;DHT22;3740;50.700;7.184;2022-12-13T07:01:15;-1.30;99.90
7399;DHT22;3740;50.700;7.184;2022-12-13T07:03:42;-1.40;99.90
7399;DHT22;3740;50.700;7.184;2022-12-13T07:06:18;-1.50;99.90
7399;DHT22;3740;50.700;7.184;2022-12-13T07:08:51;-1.50;99.90
7399;DHT22;3740;50.700;7.184;2022-12-13T07:11:20;-1.60;99.90
7399;DHT22;3740;50.700;7.184;2022-12-13T07:13:46;-1.60;99.90
7399;DHT22;3740;50.700;7.184;2022-12-13T07:16:12;-1.60;99.90
7399;DHT22;3740;50.700;7.184;2022-12-13T07:18:39;-1.70;99.90
7399;DHT22;3740;50.700;7.184;2022-12-13T07:21:06;-1.80;99.90
7399;DHT22;3740;50.700;7.184;2022-12-13T07:23:33;-1.90;99.90
7399;DHT22;3740;50.700;7.184;2022-12-13T07:25:59;-1.70;99.90
7399;DHT22;3740;50.700;7.184;2022-12-13T07:28:24;-1.60;99.90
7399;DHT22;3740;50.700;7.184;2022-12-13T07:30:50;-1.60;99.90
7399;DHT22;3740;50.700;7.184;2022-12-13T07:33:16;-1.70;99.90
7399;DHT22;3740;50.700;7.184;2022-12-13T07:35:41;-1.70;99.90
7399;DHT22;3740;50.700;7.184;2022-12-13T07:38:09;-1.70;99.90
7399;DHT22;3740;50.700;7.184;2022-12-13T07:40:36;-1.70;99.90
7399;DHT22;3740;50.700;7.184;2022-12-13T07:43:02;-1.60;99.90
7399;DHT22;3740;50.700;7.184;2022-12-13T07:45:27;-1.50;99.90
7399;DHT22;3740;50.700;7.184;2022-12-13T07:47:53;-1.50;99.90
7399;DHT22;3740;50.700;7.184;2022-12-13T07:50:19;-1.60;99.90
7399;DHT22;3740;50.700;7.184;2022-12-13T07:52:49;-1.60;99.90
7399;DHT22;3740;50.700;7.184;2022-12-13T07:55:15;-1.70;99.90
7399;DHT22;3740;50.700;7.184;2022-12-13T07:57:44;-1.70;99.90
7399;DHT22;3740;50.700;7.184;2022-12-13T08:00:10;-1.70;99.90
7399;DHT22;3740;50.700;7.184;2022-12-13T08:02:36;-1.60;99.90
7399;DHT22;3740;50.700;7.184;2022-12-13T08:05:02;-1.60;99.90
7399;DHT22;3740;50.700;7.184;2022-12-13T08:07:27;-1.60;99.90
7399;DHT22;3740;50.700;7.184;2022-12-13T08:09:53;-1.40;99.90
7399;DHT22;3740;50.700;7.184;2022-12-13T08:12:20;-1.20;99.90
7399;DHT22;3740;50.700;7.184;2022-12-13T08:14:45;-1.40;99.90
7399;DHT22;3740;50.700;7.184;2022-12-13T08:17:11;-1.40;99.90
7399;DHT22;3740;50.700;7.184;2022-12-13T08:19:37;-1.40;99.90
7399;DHT22;3740;50.700;7.184;2022-12-13T08:22:03;-1.50;99.90
7399;DHT22;3740;50.700;7.184;2022-12-13T08:24:29;-1.50;99.90
7399;DHT22;3740;50.700;7.184;2022-12-13T08:27:00;-1.40;99.90
7399;DHT22;3740;50.700;7.184;2022-12-13T08:29:26;-1.40;99.90
7399;DHT22;3740;50.700;7.184;2022-12-13T08:31:51;-1.30;99.90
7399;DHT22;3740;50.700;7.184;2022-12-13T08:34:17;-1.20;99.90
7399;DHT22;3740;50.700;7.184;2022-12-13T08:36:42;-1.20;99.90
7399;DHT22;3740;50.700;7.184;2022-12-13T08:39:08;-1.20;99.90
7399;DHT22;3740;50.700;7.184;2022-12-13T08:41:34;-1.10;99.90
7399;DHT22;3740;50.700;7.184;2022-12-13T08:43:59;-1.00;99.90
7399;DHT22;3740;50.700;7.184;2022-12-13T08:46:25;-0.80;99.90
7399;DHT22;3740;50.700;7.184;2022-12-13T08:48:52;-0.70;99.90
7399;DHT22;3740;50.700;7.184;2022-12-13T08:51:18;-0.60;99.90
7399;DHT22;3740;50.700;7.184;2022-12-13T08:53:50;-0.50;99.90
7399;DHT22;3740;50.700;7.184;2022-12-13T08:56:16;-0.40;99.90
7399;DHT22;3740;50.700;7.184;2022-12-13T08:58:48;-0.10;99.90
7399;DHT22;3740;50.700;7.184;2022-12-13T09:01:14;0.20;99.90
7399;DHT22;3740;50.700;7.184;2022-12-13T09:03:40;0.40;99.90
7399;DHT22;3740;50.700;7.184;2022-12-13T09:06:07;0.20;99.90
7399;DHT22;3740;50.700;7.184;2022-12-13T09:08:35;0.10;99.90
7399;DHT22;3740;50.700;7.184;2022-12-13T09:11:01;0.00;99.90
7399;DHT22;3740;50.700;7.184;2022-12-13T09:13:29;-0.10;99.90
7399;DHT22;3740;50.700;7.184;2022-12-13T09:15:54;-0.20;99.90
7399;DHT22;3740;50.700;7.184;2022-12-13T09:18:20;-0.10;99.90
7399;DHT22;3740;50.700;7.184;2022-12-13T09:20:45;-0.10;99.90
7399;DHT22;3740;50.700;7.184;2022-12-13T09:23:11;0.00;99.90
7399;DHT22;3740;50.700;7.184;2022-12-13T09:25:36;0.20;99.90
7399;DHT22;3740;50.700;7.184;2022-12-13T09:28:05;0.20;99.90
7399;DHT22;3740;50.700;7.184;2022-12-13T09:30:32;0.20;99.90
7399;DHT22;3740;50.700;7.184;2022-12-13T09:32:57;0.30;99.90
7399;DHT22;3740;50.700;7.184;2022-12-13T09:35:23;0.50;99.90
7399;DHT22;3740;50.700;7.184;2022-12-13T09:37:49;0.60;99.90
7399;DHT22;3740;50.700;7.184;2022-12-13T09:40:21;0.80;99.90
7399;DHT22;3740;50.700;7.184;2022-12-13T09:42:50;0.90;99.90
7399;DHT22;3740;50.700;7.184;2022-12-13T09:45:17;1.10;99.90
7399;DHT22;3740;50.700;7.184;2022-12-13T09:47:44;1.20;99.90
7399;DHT22;3740;50.700;7.184;2022-12-13T09:50:32;1.40;99.90
7399;DHT22;3740;50.700;7.184;2022-12-13T09:53:04;1.60;99.90
7399;DHT22;3740;50.700;7.184;2022-12-13T09:55:37;1.70;99.90
7399;DHT22;3740;50.700;7.184;2022-12-13T09:58:11;1.80;99.90
7399;DHT22;3740;50.700;7.184;2022-12-13T10:00:38;2.00;99.90
7399;DHT22;3740;50.700;7.184;2022-12-13T10:03:05;2.20;99.90
7399;DHT22;3740;50.700;7.184;2022-12-13T10:05:36;2.30;99.90
7399;DHT22;3740;50.700;7.184;2022-12-13T10:08:20;2.30;99.90
7399;DHT22;3740;50.700;7.184;2022-12-13T10:10:49;2.30;99.90
7399;DHT22;3740;50.700;7.184;2022-12-13T10:13:36;2.40;99.90
7399;DHT22;3740;50.700;7.184;2022-12-13T10:16:08;2.40;99.90
7399;DHT22;3740;50.700;7.184;2022-12-13T10:18:38;2.60;99.90
7399;DHT22;3740;50.700;7.184;2022-12-13T10:21:29;2.80;99.90
7399;DHT22;3740;50.700;7.184;2022-12-13T10:24:28;3.00;99.90
7399;DHT22;3740;50.700;7.184;2022-12-13T10:27:14;2.90;99.90
7399;DHT22;3740;50.700;7.184;2022-12-13T10:30:08;2.90;99.90
7399;DHT22;3740;50.700;7.184;2022-12-13T10:32:56;3.10;99.90
7399;DHT22;3740;50.700;7.184;2022-12-13T10:35:26;3.40;99.90
7399;DHT22;3740;50.700;7.184;2022-12-13T10:37:52;3.40;99.90
7399;DHT22;3740;50.700;7.184;2022-12-13T10:40:37;3.50;99.90
7399;DHT22;3740;50.700;7.184;2022-12-13T10:43:24;3.60;99.90
7399;DHT22;3740;50.700;7.184;2022-12-13T10:46:02;3.80;99.90
7399;DHT22;3740;50.700;7.184;2022-12-13T10:48:34;3.90;99.90
7399;DHT22;3740;50.700;7.184;2022-12-13T10:51:02;3.90;99.90
7399;DHT22;3740;50.700;7.184;2022-12-13T10:53:40;3.90;99.90
7399;DHT22;3740;50.700;7.184;2022-12-13T10:56:06;3.80;99.90
7399;DHT22;3740;50.700;7.184;2022-12-13T10:58:41;3.90;99.90
7399;DHT22;3740;50.700;7.184;2022-12-13T11:01:23;4.00;99.90
7399;DHT22;3740;50.700;7.184;2022-12-13T11:04:01;4.20;99.90
7399;DHT22;3740;50.700;7.184;2022-12-13T11:06:41;4.50;99.90
7399;DHT22;3740;50.700;7.184;2022-12-13T11:09:24;4.70;99.90
7399;DHT22;3740;50.700;7.184;2022-12-13T11:11:55;4.60;99.90
7399;DHT22;3740;50.700;7.184;2022-12-13T11:14:24;4.90;99.90
7399;DHT22;3740;50.700;7.184;2022-12-13T11:16:53;5.10;99.90
7399;DHT22;3740;50.700;7.184;2022-12-13T11:19:32;5.00;99.90
7399;DHT22;3740;50.700;7.184;2022-12-13T11:21:59;5.00;99.90
7399;DHT22;3740;50.700;7.184;2022-12-13T11:24:30;5.30;99.90
7399;DHT22;3740;50.700;7.184;2022-12-13T11:27:20;5.50;99.90
7399;DHT22;3740;50.700;7.184;2022-12-13T11:35:25;5.60;99.20
7399;DHT22;3740;50.700;7.184;2022-12-13T11:38:10;5.20;99.10
7399;DHT22;3740;50.700;7.184;2022-12-13T11:40:44;4.80;99.60
7399;DHT22;3740;50.700;7.184;2022-12-13T11:45:47;4.90;99.80
7399;DHT22;3740;50.700;7.184;2022-12-13T11:48:24;5.00;99.70
7399;DHT22;3740;50.700;7.184;2022-12-13T11:50:53;5.10;99.60
7399;DHT22;3740;50.700;7.184;2022-12-13T11:53:33;5.10;99.00
7399;DHT22;3740;50.700;7.184;2022-12-13T12:01:11;5.60;98.70
7399;DHT22;3740;50.700;7.184;2022-12-13T12:03:48;5.60;98.20
7399;DHT22;3740;50.700;7.184;2022-12-13T12:06:25;5.70;98.10
7399;DHT22;3740;50.700;7.184;2022-12-13T12:08:59;5.60;97.40
7399;DHT22;3740;50.700;7.184;2022-12-13T12:14:08;5.10;98.40
7399;DHT22;3740;50.700;7.184;2022-12-13T12:16:42;5.10;98.20
7399;DHT22;3740;50.700;7.184;2022-12-13T12:19:15;5.30;98.00
7399;DHT22;3740;50.700;7.184;2022-12-13T12:21:53;5.30;98.20
7399;DHT22;3740;50.700;7.184;2022-12-13T12:27:34;4.70;98.50
7399;DHT22;3740;50.700;7.184;2022-12-13T12:35:49;4.70;99.10
7399;DHT22;3740;50.700;7.184;2022-12-13T12:41:36;4.60;99.20
7399;DHT22;3740;50.700;7.184;2022-12-13T12:47:43;4.30;99.00
7399;DHT22;3740;50.700;7.184;2022-12-13T12:50:21;4.10;99.70
7399;DHT22;3740;50.700;7.184;2022-12-13T12:52:59;4.00;99.50
7399;DHT22;3740;50.700;7.184;2022-12-13T13:01:08;3.80;99.90
7399;DHT22;3740;50.700;7.184;2022-12-13T13:03:38;3.80;99.90
7399;DHT22;3740;50.700;7.184;2022-12-13T13:06:29;3.70;99.90
7399;DHT22;3740;50.700;7.184;2022-12-13T13:09:03;3.70;99.90
7399;DHT22;3740;50.700;7.184;2022-12-13T13:11:35;3.60;99.90
7399;DHT22;3740;50.700;7.184;2022-12-13T13:16:39;3.50;99.90
7399;DHT22;3740;50.700;7.184;2022-12-13T13:21:55;3.40;99.90
7399;DHT22;3740;50.700;7.184;2022-12-13T13:24:28;3.30;99.90
7399;DHT22;3740;50.700;7.184;2022-12-13T13:34:38;3.80;99.90
7399;DHT22;3740;50.700;7.184;2022-12-13T13:40:26;4.00;99.90
7399;DHT22;3740;50.700;7.184;2022-12-13T13:51:42;4.00;99.90
7399;DHT22;3740;50.700;7.184;2022-12-13T13:59:32;3.90;99.90
7399;DHT22;3740;50.700;7.184;2022-12-13T14:02:41;3.80;99.80
7399;DHT22;3740;50.700;7.184;2022-12-13T14:11:37;3.10;99.90
7399;DHT22;3740;50.700;7.184;2022-12-13T14:14:40;3.10;99.90
7399;DHT22;3740;50.700;7.184;2022-12-13T14:17:44;2.90;99.90
7399;DHT22;3740;50.700;7.184;2022-12-13T14:20:41;2.80;99.90
7399;DHT22;3740;50.700;7.184;2022-12-13T14:23:18;2.70;99.90
7399;DHT22;3740;50.700;7.184;2022-12-13T14:28:52;2.70;99.90
7399;DHT22;3740;50.700;7.184;2022-12-13T14:31:26;2.60;99.90
7399;DHT22;3740;50.700;7.184;2022-12-13T14:33:53;2.60;99.90
7399;DHT22;3740;50.700;7.184;2022-12-13T14:36:27;2.50;99.90
7399;DHT22;3740;50.700;7.184;2022-12-13T14:39:05;2.40;99.90
7399;DHT22;3740;50.700;7.184;2022-12-13T14:41:31;1.60;99.90
7399;DHT22;3740;50.700;7.184;2022-12-13T14:44:28;2.40;99.90
7399;DHT22;3740;50.700;7.184;2022-12-13T14:46:59;2.40;99.90
7399;DHT22;3740;50.700;7.184;2022-12-13T14:49:28;2.40;99.90
7399;DHT22;3740;50.700;7.184;2022-12-13T14:52:14;2.30;99.90
7399;DHT22;3740;50.700;7.184;2022-12-13T14:57:18;2.10;99.90
7399;DHT22;3740;50.700;7.184;2022-12-13T14:59:49;2.00;99.90
7399;DHT22;3740;50.700;7.184;2022-12-13T15:02:19;2.10;99.90
7399;DHT22;3740;50.700;7.184;2022-12-13T15:04:46;2.20;99.90
7399;DHT22;3740;50.700;7.184;2022-12-13T15:09:52;2.10;99.90
7399;DHT22;3740;50.700;7.184;2022-12-13T15:12:18;2.10;99.90
7399;DHT22;3740;50.700;7.184;2022-12-13T15:14:47;2.00;99.90
7399;DHT22;3740;50.700;7.184;2022-12-13T15:17:33;2.00;99.90
7399;DHT22;3740;50.700;7.184;2022-12-13T15:20:00;2.10;99.90
7399;DHT22;3740;50.700;7.184;2022-12-13T15:22:26;2.10;99.90
7399;DHT22;3740;50.700;7.184;2022-12-13T15:24:53;2.00;99.90
7399;DHT22;3740;50.700;7.184;2022-12-13T15:27:20;1.90;99.90
7399;DHT22;3740;50.700;7.184;2022-12-13T15:29:48;1.90;99.90
7399;DHT22;3740;50.700;7.184;2022-12-13T15:32:16;1.90;99.90
7399;DHT22;3740;50.700;7.184;2022-12-13T15:34:46;1.90;99.90
7399;DHT22;3740;50.700;7.184;2022-12-13T15:39:40;1.80;99.90
7399;DHT22;3740;50.700;7.184;2022-12-13T15:42:31;1.70;99.90
7399;DHT22;3740;50.700;7.184;2022-12-13T15:45:03;1.70;99.90
7399;DHT22;3740;50.700;7.184;2022-12-13T15:47:30;1.60;99.90
7399;DHT22;3740;50.700;7.184;2022-12-13T15:50:01;1.50;99.90
7399;DHT22;3740;50.700;7.184;2022-12-13T15:52:31;1.50;99.90
7399;DHT22;3740;50.700;7.184;2022-12-13T15:57:56;1.40;99.90
7399;DHT22;3740;50.700;7.184;2022-12-13T16:00:33;1.40;99.90
7399;DHT22;3740;50.700;7.184;2022-12-13T16:03:11;1.40;99.90
7399;DHT22;3740;50.700;7.184;2022-12-13T16:05:50;1.40;99.90
7399;DHT22;3740;50.700;7.184;2022-12-13T16:08:30;1.40;99.90
7399;DHT22;3740;50.700;7.184;2022-12-13T16:10:57;1.30;99.90
7399;DHT22;3740;50.700;7.184;2022-12-13T16:13:25;1.30;99.90
7399;DHT22;3740;50.700;7.184;2022-12-13T16:15:53;1.30;99.90
7399;DHT22;3740;50.700;7.184;2022-12-13T16:18:22;1.30;99.90
7399;DHT22;3740;50.700;7.184;2022-12-13T16:20:48;1.20;99.90
7399;DHT22;3740;50.700;7.184;2022-12-13T16:23:17;1.10;99.90
7399;DHT22;3740;50.700;7.184;2022-12-13T16:25:43;1.20;99.90
7399;DHT22;3740;50.700;7.184;2022-12-13T16:28:16;1.30;99.90
7399;DHT22;3740;50.700;7.184;2022-12-13T16:33:18;1.60;99.90
7399;DHT22;3740;50.700;7.184;2022-12-13T16:35:43;1.60;99.90
7399;DHT22;3740;50.700;7.184;2022-12-13T16:38:10;1.70;99.90
7399;DHT22;3740;50.700;7.184;2022-12-13T16:40:36;1.80;99.90
7399;DHT22;3740;50.700;7.184;2022-12-13T16:43:04;1.80;99.90
7399;DHT22;3740;50.700;7.184;2022-12-13T16:45:38;1.90;99.90
7399;DHT22;3740;50.700;7.184;2022-12-13T16:48:04;1.90;99.90
7399;DHT22;3740;50.700;7.184;2022-12-13T16:50:31;2.00;99.90
7399;DHT22;3740;50.700;7.184;2022-12-13T16:52:57;2.00;99.90
7399;DHT22;3740;50.700;7.184;2022-12-13T16:55:23;2.00;99.90
7399;DHT22;3740;50.700;7.184;2022-12-13T16:58:03;2.00;99.90
7399;DHT22;3740;50.700;7.184;2022-12-13T17:00:29;1.90;99.90
7399;DHT22;3740;50.700;7.184;2022-12-13T17:02:56;1.80;99.90
7399;DHT22;3740;50.700;7.184;2022-12-13T17:05:23;1.60;99.90
7399;DHT22;3740;50.700;7.184;2022-12-13T17:07:49;1.60;99.90
7399;DHT22;3740;50.700;7.184;2022-12-13T17:10:16;1.40;99.90
7399;DHT22;3740;50.700;7.184;2022-12-13T17:12:42;1.30;99.90
7399;DHT22;3740;50.700;7.184;2022-12-13T17:15:08;1.30;99.90
7399;DHT22;3740;50.700;7.184;2022-12-13T17:17:38;1.30;99.90
7399;DHT22;3740;50.700;7.184;2022-12-13T17:20:09;1.30;99.90
7399;DHT22;3740;50.700;7.184;2022-12-13T17:22:36;1.30;99.90
7399;DHT22;3740;50.700;7.184;2022-12-13T17:25:02;1.10;99.90
7399;DHT22;3740;50.700;7.184;2022-12-13T17:27:28;1.10;99.90
7399;DHT22;3740;50.700;7.184;2022-12-13T17:29:54;1.10;99.90
7399;DHT22;3740;50.700;7.184;2022-12-13T17:32:20;1.20;99.90
7399;DHT22;3740;50.700;7.184;2022-12-13T17:34:45;1.20;99.90
7399;DHT22;3740;50.700;7.184;2022-12-13T17:37:11;1.20;99.90
7399;DHT22;3740;50.700;7.184;2022-12-13T17:39:36;1.20;99.90
7399;DHT22;3740;50.700;7.184;2022-12-13T17:42:02;1.20;99.90
7399;DHT22;3740;50.700;7.184;2022-12-13T17:44:28;1.30;99.90
7399;DHT22;3740;50.700;7.184;2022-12-13T17:46:53;1.30;99.90
7399;DHT22;3740;50.700;7.184;2022-12-13T17:49:19;1.30;99.90
7399;DHT22;3740;50.700;7.184;2022-12-13T17:51:45;1.30;99.90
7399;DHT22;3740;50.700;7.184;2022-12-13T17:54:11;1.20;99.90
7399;DHT22;3740;50.700;7.184;2022-12-13T17:56:37;1.20;99.90
7399;DHT22;3740;50.700;7.184;2022-12-13T17:59:03;1.20;99.90
7399;DHT22;3740;50.700;7.184;2022-12-13T18:01:29;1.20;99.90
7399;DHT22;3740;50.700;7.184;2022-12-13T18:03:56;1.10;99.90
7399;DHT22;3740;50.700;7.184;2022-12-13T18:06:23;0.90;99.90
7399;DHT22;3740;50.700;7.184;2022-12-13T18:08:49;0.90;99.90
7399;DHT22;3740;50.700;7.184;2022-12-13T18:11:16;1.00;99.90
7399;DHT22;3740;50.700;7.184;2022-12-13T18:13:42;0.90;99.90
7399;DHT22;3740;50.700;7.184;2022-12-13T18:16:12;1.00;99.90
7399;DHT22;3740;50.700;7.184;2022-12-13T18:18:38;1.00;99.90